Airfield :
LOGIN :

Register | Disclaimer

   EN    FR    IT 

 










Legend :    VFR   Marginal VFR   IFR   Intensive IFR   Very Intensive IFR
Visi :
Ceiling :
>= 8 km
>= 3000ft
5 to 8 km
1000 to 3000 ft
1500m to 5 km
500 to 1000 ft
800 to 1500m
200 to 500 ft
< 800m
< 200 ft
Symbols :   Thunderstorms  Fog  Heavy snow  Heavy precipitations  Wind > 20 kt
SIGMETs :     Misc.  Thunderstorms  Icing  Turbulence  Mountain Waves  Volcanic Ashes







- Airport Elevation : 1300 ft
- IATA code : LIG
- Download approach charts


LFBL - Limoges

CURRENT METAR :
  • 230630Z AUTO 10004KT 9999 -RA ///TCU 12/07 Q0997 NOSIG

EXPIRED METARs :
  • 230600Z AUTO 09004KT CAVOK 12/07 Q0997 BECMG BKN040 FEW050TCU
  • 230530Z AUTO 11003KT 9999 -RA NSC 12/07 Q0997 BECMG BKN040 FEW050TCU
  • 230500Z AUTO 10003KT CAVOK 12/06 Q0997 BECMG BKN040 FEW050TCU
  • 230430Z AUTO 08003KT CAVOK 12/05 Q0997 BECMG BKN040 FEW050TCU
  • 230400Z AUTO 08004KT CAVOK 12/05 Q0997 BECMG BKN040 FEW050TCU

TAF TAF LFBL
Valid from the 23 at 06:00 until the 24 at 06:00 UTC


230500Z 2306/2406 VRB03KT CAVOK
BECMG 2306/2307 BKN040 FEW050TCU
BECMG 2308/2310 14010KT
PROB30
TEMPO 2316/2324 14018G28KT -TSRA SCT050CB
BECMG 2400/2402 22007KT 4000 -RA BKN014
ATIS : +33 5 55 48 40 37
No reported NOTAMs for that airfield.



MET'MAP, your aeronautical weather chart ! - Copyright ORBIFLY December 2007 - Disclaimer

ORBIFLY MET'MAP TEAM :

Programming & Development : Alexandra Zaïnal
Concept & Development : Baudouin d'Aumeries
Co-Development & Prog : Marc-Olivier Méhu
Technical & hardware support : Manuel Goepfert

Contact : metmap@orbifly.com




SOURCES & CREDITS :

   NOAA